sensor_id;sensor_type;location;lat;lon;timestamp;temperature;humidity
25616;DHT22;13482;48.234;13.006;2023-05-10T00:00:28;16.60;59.40
25616;DHT22;13482;48.234;13.006;2023-05-10T00:02:55;16.60;59.40
25616;DHT22;13482;48.234;13.006;2023-05-10T00:05:23;16.60;59.50
25616;DHT22;13482;48.234;13.006;2023-05-10T00:07:50;16.60;59.50
25616;DHT22;13482;48.234;13.006;2023-05-10T00:10:17;16.60;59.40
25616;DHT22;13482;48.234;13.006;2023-05-10T00:12:44;16.60;59.30
25616;DHT22;13482;48.234;13.006;2023-05-10T00:15:12;16.60;59.40
25616;DHT22;13482;48.234;13.006;2023-05-10T00:17:39;16.50;59.50
25616;DHT22;13482;48.234;13.006;2023-05-10T00:20:06;16.50;59.50
25616;DHT22;13482;48.234;13.006;2023-05-10T00:22:34;16.50;59.50
25616;DHT22;13482;48.234;13.006;2023-05-10T00:25:01;16.50;59.60
25616;DHT22;13482;48.234;13.006;2023-05-10T00:27:28;16.50;59.70
25616;DHT22;13482;48.234;13.006;2023-05-10T00:29:55;16.50;59.80
25616;DHT22;13482;48.234;13.006;2023-05-10T00:32:22;16.50;59.80
25616;DHT22;13482;48.234;13.006;2023-05-10T00:34:49;16.50;59.80
25616;DHT22;13482;48.234;13.006;2023-05-10T00:37:17;16.50;59.90
25616;DHT22;13482;48.234;13.006;2023-05-10T00:39:44;16.50;59.90
25616;DHT22;13482;48.234;13.006;2023-05-10T00:42:11;16.50;60.00
25616;DHT22;13482;48.234;13.006;2023-05-10T00:44:38;16.50;60.10
25616;DHT22;13482;48.234;13.006;2023-05-10T00:47:05;16.50;60.20
25616;DHT22;13482;48.234;13.006;2023-05-10T00:49:34;16.40;60.30
25616;DHT22;13482;48.234;13.006;2023-05-10T00:52:02;16.50;60.20
25616;DHT22;13482;48.234;13.006;2023-05-10T00:54:30;16.50;60.20
25616;DHT22;13482;48.234;13.006;2023-05-10T00:56:57;16.50;60.20
25616;DHT22;13482;48.234;13.006;2023-05-10T00:59:25;16.40;60.40
25616;DHT22;13482;48.234;13.006;2023-05-10T01:01:53;16.40;60.50
25616;DHT22;13482;48.234;13.006;2023-05-10T01:04:20;16.40;60.50
25616;DHT22;13482;48.234;13.006;2023-05-10T01:06:52;16.40;60.50
25616;DHT22;13482;48.234;13.006;2023-05-10T01:09:21;16.40;60.60
25616;DHT22;13482;48.234;13.006;2023-05-10T01:11:48;16.40;60.80
25616;DHT22;13482;48.234;13.006;2023-05-10T01:14:18;16.40;61.00
25616;DHT22;13482;48.234;13.006;2023-05-10T01:16:48;16.30;61.20
25616;DHT22;13482;48.234;13.006;2023-05-10T01:19:22;16.30;61.30
25616;DHT22;13482;48.234;13.006;2023-05-10T01:34:27;16.30;62.20
25616;DHT22;13482;48.234;13.006;2023-05-10T01:37:08;16.30;62.30
25616;DHT22;13482;48.234;13.006;2023-05-10T01:39:47;16.20;62.10
25616;DHT22;13482;48.234;13.006;2023-05-10T01:42:26;16.20;62.30
25616;DHT22;13482;48.234;13.006;2023-05-10T01:45:07;16.20;62.10
25616;DHT22;13482;48.234;13.006;2023-05-10T01:47:42;16.20;61.70
25616;DHT22;13482;48.234;13.006;2023-05-10T01:50:16;16.20;61.80
25616;DHT22;13482;48.234;13.006;2023-05-10T01:52:51;16.20;62.40
25616;DHT22;13482;48.234;13.006;2023-05-10T01:55:24;16.20;62.80
25616;DHT22;13482;48.234;13.006;2023-05-10T01:58:01;16.20;62.60
25616;DHT22;13482;48.234;13.006;2023-05-10T02:00:32;16.20;63.10
25616;DHT22;13482;48.234;13.006;2023-05-10T02:03:03;16.20;62.80
25616;DHT22;13482;48.234;13.006;2023-05-10T02:05:33;16.20;62.80
25616;DHT22;13482;48.234;13.006;2023-05-10T02:08:02;16.20;62.70
25616;DHT22;13482;48.234;13.006;2023-05-10T02:10:34;16.20;62.60
25616;DHT22;13482;48.234;13.006;2023-05-10T02:13:02;16.20;62.70
25616;DHT22;13482;48.234;13.006;2023-05-10T02:15:30;16.20;62.70
25616;DHT22;13482;48.234;13.006;2023-05-10T02:17:59;16.20;62.80
25616;DHT22;13482;48.234;13.006;2023-05-10T02:20:27;16.20;62.90
25616;DHT22;13482;48.234;13.006;2023-05-10T02:22:56;16.20;63.00
25616;DHT22;13482;48.234;13.006;2023-05-10T02:25:25;16.20;63.20
25616;DHT22;13482;48.234;13.006;2023-05-10T02:27:57;16.20;63.30
25616;DHT22;13482;48.234;13.006;2023-05-10T02:30:25;16.20;63.40
25616;DHT22;13482;48.234;13.006;2023-05-10T02:32:53;16.10;63.40
25616;DHT22;13482;48.234;13.006;2023-05-10T02:35:22;16.20;63.50
25616;DHT22;13482;48.234;13.006;2023-05-10T02:37:50;16.10;63.50
25616;DHT22;13482;48.234;13.006;2023-05-10T02:40:18;16.20;63.60
25616;DHT22;13482;48.234;13.006;2023-05-10T02:42:47;16.10;63.80
25616;DHT22;13482;48.234;13.006;2023-05-10T02:45:19;16.10;63.80
25616;DHT22;13482;48.234;13.006;2023-05-10T02:47:48;16.20;63.90
25616;DHT22;13482;48.234;13.006;2023-05-10T02:50:15;16.10;63.80
25616;DHT22;13482;48.234;13.006;2023-05-10T02:52:46;16.10;63.90
25616;DHT22;13482;48.234;13.006;2023-05-10T02:55:16;16.20;64.10
25616;DHT22;13482;48.234;13.006;2023-05-10T02:57:48;16.20;64.10
25616;DHT22;13482;48.234;13.006;2023-05-10T03:00:19;16.20;64.60
25616;DHT22;13482;48.234;13.006;2023-05-10T03:02:46;16.20;64.50
25616;DHT22;13482;48.234;13.006;2023-05-10T03:05:14;16.20;64.70
25616;DHT22;13482;48.234;13.006;2023-05-10T03:07:41;16.20;64.80
25616;DHT22;13482;48.234;13.006;2023-05-10T03:10:09;16.20;65.00
25616;DHT22;13482;48.234;13.006;2023-05-10T03:18:22;16.10;65.20
25616;DHT22;13482;48.234;13.006;2023-05-10T03:20:59;16.10;65.90
25616;DHT22;13482;48.234;13.006;2023-05-10T03:23:40;16.10;66.20
25616;DHT22;13482;48.234;13.006;2023-05-10T03:26:23;16.00;65.70
25616;DHT22;13482;48.234;13.006;2023-05-10T03:28:53;16.00;65.50
25616;DHT22;13482;48.234;13.006;2023-05-10T03:31:21;16.00;65.60
25616;DHT22;13482;48.234;13.006;2023-05-10T03:33:49;16.00;65.80
25616;DHT22;13482;48.234;13.006;2023-05-10T03:36:18;15.90;66.00
25616;DHT22;13482;48.234;13.006;2023-05-10T03:38:45;15.90;66.10
25616;DHT22;13482;48.234;13.006;2023-05-10T03:41:12;15.90;66.40
25616;DHT22;13482;48.234;13.006;2023-05-10T03:43:40;15.90;66.50
25616;DHT22;13482;48.234;13.006;2023-05-10T03:46:08;15.90;66.50
25616;DHT22;13482;48.234;13.006;2023-05-10T03:48:35;15.90;66.40
25616;DHT22;13482;48.234;13.006;2023-05-10T03:51:02;15.90;66.50
25616;DHT22;13482;48.234;13.006;2023-05-10T03:53:29;16.00;66.40
25616;DHT22;13482;48.234;13.006;2023-05-10T03:55:56;16.00;66.50
25616;DHT22;13482;48.234;13.006;2023-05-10T03:58:23;16.00;66.50
25616;DHT22;13482;48.234;13.006;2023-05-10T04:00:51;16.00;66.50
25616;DHT22;13482;48.234;13.006;2023-05-10T04:03:18;16.00;66.50
25616;DHT22;13482;48.234;13.006;2023-05-10T04:05:47;16.00;66.40
25616;DHT22;13482;48.234;13.006;2023-05-10T04:08:14;16.00;66.50
25616;DHT22;13482;48.234;13.006;2023-05-10T04:10:43;16.00;66.70
25616;DHT22;13482;48.234;13.006;2023-05-10T04:13:10;16.00;66.80
25616;DHT22;13482;48.234;13.006;2023-05-10T04:15:37;16.00;66.80
25616;DHT22;13482;48.234;13.006;2023-05-10T04:18:05;16.10;66.80
25616;DHT22;13482;48.234;13.006;2023-05-10T04:20:34;16.10;66.90
25616;DHT22;13482;48.234;13.006;2023-05-10T04:23:01;16.10;66.90
25616;DHT22;13482;48.234;13.006;2023-05-10T04:25:29;16.10;66.90
25616;DHT22;13482;48.234;13.006;2023-05-10T04:27:56;16.10;66.90
25616;DHT22;13482;48.234;13.006;2023-05-10T04:30:23;16.10;67.00
25616;DHT22;13482;48.234;13.006;2023-05-10T04:32:50;16.20;67.10
25616;DHT22;13482;48.234;13.006;2023-05-10T04:35:17;16.20;67.10
25616;DHT22;13482;48.234;13.006;2023-05-10T04:37:44;16.20;67.10
25616;DHT22;13482;48.234;13.006;2023-05-10T04:40:12;16.20;67.20
25616;DHT22;13482;48.234;13.006;2023-05-10T04:42:43;16.20;67.40
25616;DHT22;13482;48.234;13.006;2023-05-10T04:45:11;16.20;67.70
25616;DHT22;13482;48.234;13.006;2023-05-10T04:47:38;16.30;67.40
25616;DHT22;13482;48.234;13.006;2023-05-10T04:50:06;16.30;67.40
25616;DHT22;13482;48.234;13.006;2023-05-10T04:52:34;16.30;67.40
25616;DHT22;13482;48.234;13.006;2023-05-10T04:55:01;16.30;67.50
25616;DHT22;13482;48.234;13.006;2023-05-10T04:57:28;16.30;67.60
25616;DHT22;13482;48.234;13.006;2023-05-10T04:59:55;16.40;67.60
25616;DHT22;13482;48.234;13.006;2023-05-10T05:02:22;16.40;67.70
25616;DHT22;13482;48.234;13.006;2023-05-10T05:04:50;16.40;67.90
25616;DHT22;13482;48.234;13.006;2023-05-10T05:07:17;16.40;68.00
25616;DHT22;13482;48.234;13.006;2023-05-10T05:09:44;16.50;68.10
25616;DHT22;13482;48.234;13.006;2023-05-10T05:12:11;16.50;68.30
25616;DHT22;13482;48.234;13.006;2023-05-10T05:14:41;16.60;68.40
25616;DHT22;13482;48.234;13.006;2023-05-10T05:17:08;16.60;68.40
25616;DHT22;13482;48.234;13.006;2023-05-10T05:19:35;16.70;68.50
25616;DHT22;13482;48.234;13.006;2023-05-10T05:22:02;16.70;68.60
25616;DHT22;13482;48.234;13.006;2023-05-10T05:24:32;16.70;68.70
25616;DHT22;13482;48.234;13.006;2023-05-10T05:27:02;16.80;68.80
25616;DHT22;13482;48.234;13.006;2023-05-10T05:29:29;16.80;68.90
25616;DHT22;13482;48.234;13.006;2023-05-10T05:31:56;16.80;69.20
25616;DHT22;13482;48.234;13.006;2023-05-10T05:34:23;16.90;69.40
25616;DHT22;13482;48.234;13.006;2023-05-10T05:36:51;16.90;69.60
25616;DHT22;13482;48.234;13.006;2023-05-10T05:39:18;17.00;69.80
25616;DHT22;13482;48.234;13.006;2023-05-10T05:41:45;17.00;69.90
25616;DHT22;13482;48.234;13.006;2023-05-10T05:44:13;17.10;70.00
25616;DHT22;13482;48.234;13.006;2023-05-10T05:46:40;17.10;70.00
25616;DHT22;13482;48.234;13.006;2023-05-10T05:49:07;17.20;70.00
25616;DHT22;13482;48.234;13.006;2023-05-10T05:51:34;17.20;69.80
25616;DHT22;13482;48.234;13.006;2023-05-10T05:54:02;17.20;69.70
25616;DHT22;13482;48.234;13.006;2023-05-10T05:56:31;17.20;69.70
25616;DHT22;13482;48.234;13.006;2023-05-10T05:58:58;17.30;69.70
25616;DHT22;13482;48.234;13.006;2023-05-10T06:01:25;17.30;69.80
25616;DHT22;13482;48.234;13.006;2023-05-10T06:03:52;17.30;70.00
25616;DHT22;13482;48.234;13.006;2023-05-10T06:06:19;17.40;70.10
25616;DHT22;13482;48.234;13.006;2023-05-10T06:08:46;17.40;70.10
25616;DHT22;13482;48.234;13.006;2023-05-10T06:11:13;17.50;70.30
25616;DHT22;13482;48.234;13.006;2023-05-10T06:13:41;17.50;70.60
25616;DHT22;13482;48.234;13.006;2023-05-10T06:16:09;17.60;70.70
25616;DHT22;13482;48.234;13.006;2023-05-10T06:18:36;17.60;70.70
25616;DHT22;13482;48.234;13.006;2023-05-10T06:21:03;17.60;70.80
25616;DHT22;13482;48.234;13.006;2023-05-10T06:23:30;17.70;71.20
25616;DHT22;13482;48.234;13.006;2023-05-10T06:25:58;17.70;71.40
25616;DHT22;13482;48.234;13.006;2023-05-10T06:28:25;17.70;71.30
25616;DHT22;13482;48.234;13.006;2023-05-10T06:30:52;17.80;71.20
25616;DHT22;13482;48.234;13.006;2023-05-10T06:33:19;17.80;71.20
25616;DHT22;13482;48.234;13.006;2023-05-10T06:35:46;17.80;71.30
25616;DHT22;13482;48.234;13.006;2023-05-10T06:38:13;17.80;71.50
25616;DHT22;13482;48.234;13.006;2023-05-10T06:40:43;17.90;71.40
25616;DHT22;13482;48.234;13.006;2023-05-10T06:43:10;17.90;71.40
25616;DHT22;13482;48.234;13.006;2023-05-10T06:45:37;17.90;71.30
25616;DHT22;13482;48.234;13.006;2023-05-10T06:48:05;18.00;71.40
25616;DHT22;13482;48.234;13.006;2023-05-10T06:50:32;18.00;71.30
25616;DHT22;13482;48.234;13.006;2023-05-10T06:53:00;18.00;71.90
25616;DHT22;13482;48.234;13.006;2023-05-10T06:55:28;18.10;71.90
25616;DHT22;13482;48.234;13.006;2023-05-10T06:57:55;18.10;71.60
25616;DHT22;13482;48.234;13.006;2023-05-10T07:00:23;18.20;71.70
25616;DHT22;13482;48.234;13.006;2023-05-10T07:02:50;18.30;71.70
25616;DHT22;13482;48.234;13.006;2023-05-10T07:05:17;18.30;71.90
25616;DHT22;13482;48.234;13.006;2023-05-10T07:07:45;18.40;71.90
25616;DHT22;13482;48.234;13.006;2023-05-10T07:10:12;18.40;71.80
25616;DHT22;13482;48.234;13.006;2023-05-10T07:12:40;18.50;71.70
25616;DHT22;13482;48.234;13.006;2023-05-10T07:15:07;18.50;71.70
25616;DHT22;13482;48.234;13.006;2023-05-10T07:17:35;18.60;71.60
25616;DHT22;13482;48.234;13.006;2023-05-10T07:20:02;18.60;71.80
25616;DHT22;13482;48.234;13.006;2023-05-10T07:22:30;18.70;71.60
25616;DHT22;13482;48.234;13.006;2023-05-10T07:24:57;18.70;71.50
25616;DHT22;13482;48.234;13.006;2023-05-10T07:27:24;18.70;71.60
25616;DHT22;13482;48.234;13.006;2023-05-10T07:29:51;18.80;71.60
25616;DHT22;13482;48.234;13.006;2023-05-10T07:32:19;18.80;71.90
25616;DHT22;13482;48.234;13.006;2023-05-10T07:34:46;18.90;71.60
25616;DHT22;13482;48.234;13.006;2023-05-10T07:37:13;18.90;71.60
25616;DHT22;13482;48.234;13.006;2023-05-10T07:39:40;18.90;71.40
25616;DHT22;13482;48.234;13.006;2023-05-10T07:42:07;18.90;71.50
25616;DHT22;13482;48.234;13.006;2023-05-10T07:44:35;19.00;71.40
25616;DHT22;13482;48.234;13.006;2023-05-10T07:47:02;19.00;71.50
25616;DHT22;13482;48.234;13.006;2023-05-10T07:49:29;19.00;71.40
25616;DHT22;13482;48.234;13.006;2023-05-10T07:51:56;19.00;71.50
25616;DHT22;13482;48.234;13.006;2023-05-10T07:54:23;19.00;71.30
25616;DHT22;13482;48.234;13.006;2023-05-10T07:56:50;19.00;71.20
25616;DHT22;13482;48.234;13.006;2023-05-10T07:59:17;18.90;71.00
25616;DHT22;13482;48.234;13.006;2023-05-10T08:01:45;18.90;70.90
25616;DHT22;13482;48.234;13.006;2023-05-10T08:04:12;18.80;71.10
25616;DHT22;13482;48.234;13.006;2023-05-10T08:06:40;18.70;70.90
25616;DHT22;13482;48.234;13.006;2023-05-10T08:09:07;18.60;71.00
25616;DHT22;13482;48.234;13.006;2023-05-10T08:11:35;18.40;70.90
25616;DHT22;13482;48.234;13.006;2023-05-10T08:14:02;18.30;71.10
25616;DHT22;13482;48.234;13.006;2023-05-10T08:16:29;18.20;71.20
25616;DHT22;13482;48.234;13.006;2023-05-10T08:18:56;18.00;71.40
25616;DHT22;13482;48.234;13.006;2023-05-10T08:21:24;17.90;71.60
25616;DHT22;13482;48.234;13.006;2023-05-10T08:23:52;17.80;72.10
25616;DHT22;13482;48.234;13.006;2023-05-10T08:26:20;17.70;71.80
25616;DHT22;13482;48.234;13.006;2023-05-10T08:28:48;17.70;72.10
25616;DHT22;13482;48.234;13.006;2023-05-10T08:31:16;17.60;72.30
25616;DHT22;13482;48.234;13.006;2023-05-10T08:33:43;17.50;72.40
25616;DHT22;13482;48.234;13.006;2023-05-10T08:36:10;17.50;72.60
25616;DHT22;13482;48.234;13.006;2023-05-10T08:38:40;17.40;72.50
25616;DHT22;13482;48.234;13.006;2023-05-10T08:41:07;17.40;72.80
25616;DHT22;13482;48.234;13.006;2023-05-10T08:43:36;17.40;72.70
25616;DHT22;13482;48.234;13.006;2023-05-10T08:46:05;17.40;72.70
25616;DHT22;13482;48.234;13.006;2023-05-10T08:48:34;17.40;73.10
25616;DHT22;13482;48.234;13.006;2023-05-10T08:51:03;17.40;73.40
25616;DHT22;13482;48.234;13.006;2023-05-10T08:53:33;17.40;73.20
25616;DHT22;13482;48.234;13.006;2023-05-10T08:56:02;17.50;73.00
25616;DHT22;13482;48.234;13.006;2023-05-10T08:58:31;17.50;73.10
25616;DHT22;13482;48.234;13.006;2023-05-10T09:00:59;17.50;73.30
25616;DHT22;13482;48.234;13.006;2023-05-10T09:03:27;17.60;73.40
25616;DHT22;13482;48.234;13.006;2023-05-10T09:05:54;17.60;73.40
25616;DHT22;13482;48.234;13.006;2023-05-10T09:08:25;17.60;73.40
25616;DHT22;13482;48.234;13.006;2023-05-10T09:10:54;17.60;73.70
25616;DHT22;13482;48.234;13.006;2023-05-10T09:13:23;17.70;73.60
25616;DHT22;13482;48.234;13.006;2023-05-10T09:15:51;17.70;73.70
25616;DHT22;13482;48.234;13.006;2023-05-10T09:18:18;17.70;73.70
25616;DHT22;13482;48.234;13.006;2023-05-10T09:20:46;17.80;73.60
25616;DHT22;13482;48.234;13.006;2023-05-10T09:23:13;17.80;73.80
25616;DHT22;13482;48.234;13.006;2023-05-10T09:25:41;17.90;73.60
25616;DHT22;13482;48.234;13.006;2023-05-10T09:28:09;17.90;73.80
25616;DHT22;13482;48.234;13.006;2023-05-10T09:30:36;18.00;73.80
25616;DHT22;13482;48.234;13.006;2023-05-10T09:33:03;18.10;73.80
25616;DHT22;13482;48.234;13.006;2023-05-10T09:35:32;18.10;73.70
25616;DHT22;13482;48.234;13.006;2023-05-10T09:38:03;18.20;74.10
25616;DHT22;13482;48.234;13.006;2023-05-10T09:40:31;18.30;73.80
25616;DHT22;13482;48.234;13.006;2023-05-10T09:43:01;18.30;73.70
25616;DHT22;13482;48.234;13.006;2023-05-10T09:45:30;18.30;73.70
25616;DHT22;13482;48.234;13.006;2023-05-10T09:47:59;18.40;73.60
25616;DHT22;13482;48.234;13.006;2023-05-10T09:50:30;18.40;73.50
25616;DHT22;13482;48.234;13.006;2023-05-10T09:53:02;18.40;73.40
25616;DHT22;13482;48.234;13.006;2023-05-10T09:55:42;18.40;73.10
25616;DHT22;13482;48.234;13.006;2023-05-10T09:58:13;18.40;73.70
25616;DHT22;13482;48.234;13.006;2023-05-10T10:00:45;18.40;73.00
25616;DHT22;13482;48.234;13.006;2023-05-10T10:03:20;18.40;72.90
25616;DHT22;13482;48.234;13.006;2023-05-10T10:05:48;18.40;72.80
25616;DHT22;13482;48.234;13.006;2023-05-10T10:08:15;18.40;72.90
25616;DHT22;13482;48.234;13.006;2023-05-10T10:10:44;18.40;72.70
25616;DHT22;13482;48.234;13.006;2023-05-10T10:13:13;18.30;72.60
25616;DHT22;13482;48.234;13.006;2023-05-10T10:15:42;18.30;72.80
25616;DHT22;13482;48.234;13.006;2023-05-10T10:18:14;18.30;72.70
25616;DHT22;13482;48.234;13.006;2023-05-10T10:20:44;18.30;72.90
25616;DHT22;13482;48.234;13.006;2023-05-10T10:23:11;18.30;72.80
25616;DHT22;13482;48.234;13.006;2023-05-10T10:25:41;18.40;72.80
25616;DHT22;13482;48.234;13.006;2023-05-10T10:31:32;18.50;73.60
25616;DHT22;13482;48.234;13.006;2023-05-10T10:34:09;18.60;72.70
25616;DHT22;13482;48.234;13.006;2023-05-10T10:36:44;18.70;72.70
25616;DHT22;13482;48.234;13.006;2023-05-10T10:39:13;18.80;72.70
25616;DHT22;13482;48.234;13.006;2023-05-10T10:41:51;18.90;72.50
25616;DHT22;13482;48.234;13.006;2023-05-10T10:52:32;19.10;72.40
25616;DHT22;13482;48.234;13.006;2023-05-10T10:55:09;19.10;73.00
25616;DHT22;13482;48.234;13.006;2023-05-10T10:57:50;19.20;72.70
25616;DHT22;13482;48.234;13.006;2023-05-10T11:03:08;19.50;72.50
25616;DHT22;13482;48.234;13.006;2023-05-10T11:05:39;19.60;72.30
25616;DHT22;13482;48.234;13.006;2023-05-10T11:08:12;19.70;72.20
25616;DHT22;13482;48.234;13.006;2023-05-10T11:19:08;20.30;71.90
25616;DHT22;13482;48.234;13.006;2023-05-10T11:21:50;20.40;71.30
25616;DHT22;13482;48.234;13.006;2023-05-10T11:24:22;20.60;71.40
25616;DHT22;13482;48.234;13.006;2023-05-10T11:26:50;20.70;71.50
25616;DHT22;13482;48.234;13.006;2023-05-10T11:29:20;20.80;71.60
25616;DHT22;13482;48.234;13.006;2023-05-10T11:31:48;21.00;71.30
25616;DHT22;13482;48.234;13.006;2023-05-10T11:34:26;21.10;70.80
25616;DHT22;13482;48.234;13.006;2023-05-10T11:36:55;21.20;70.30
25616;DHT22;13482;48.234;13.006;2023-05-10T11:39:30;21.20;70.10
25616;DHT22;13482;48.234;13.006;2023-05-10T11:41:58;21.30;69.60
25616;DHT22;13482;48.234;13.006;2023-05-10T11:44:30;21.30;69.30
25616;DHT22;13482;48.234;13.006;2023-05-10T11:46:59;21.40;69.30
25616;DHT22;13482;48.234;13.006;2023-05-10T11:49:29;21.40;69.50
25616;DHT22;13482;48.234;13.006;2023-05-10T11:52:09;21.40;69.50
25616;DHT22;13482;48.234;13.006;2023-05-10T11:54:44;21.50;69.90
25616;DHT22;13482;48.234;13.006;2023-05-10T11:57:13;21.50;69.90
25616;DHT22;13482;48.234;13.006;2023-05-10T11:59:40;21.60;69.60
25616;DHT22;13482;48.234;13.006;2023-05-10T12:02:09;21.60;69.70
25616;DHT22;13482;48.234;13.006;2023-05-10T12:04:37;21.70;69.50
25616;DHT22;13482;48.234;13.006;2023-05-10T12:07:04;21.80;69.50
25616;DHT22;13482;48.234;13.006;2023-05-10T12:09:31;21.80;69.50
25616;DHT22;13482;48.234;13.006;2023-05-10T12:12:10;21.80;69.20
25616;DHT22;13482;48.234;13.006;2023-05-10T12:14:38;21.90;68.90
25616;DHT22;13482;48.234;13.006;2023-05-10T12:17:05;21.90;68.70
25616;DHT22;13482;48.234;13.006;2023-05-10T12:19:40;21.90;68.80
25616;DHT22;13482;48.234;13.006;2023-05-10T12:22:08;21.90;68.90
25616;DHT22;13482;48.234;13.006;2023-05-10T12:24:35;21.90;68.90
25616;DHT22;13482;48.234;13.006;2023-05-10T12:27:05;21.90;68.90
25616;DHT22;13482;48.234;13.006;2023-05-10T12:29:34;21.90;68.80
25616;DHT22;13482;48.234;13.006;2023-05-10T12:32:02;22.00;68.70
25616;DHT22;13482;48.234;13.006;2023-05-10T12:34:34;21.90;68.40
25616;DHT22;13482;48.234;13.006;2023-05-10T12:37:05;21.90;68.10
25616;DHT22;13482;48.234;13.006;2023-05-10T12:39:42;21.90;67.90
25616;DHT22;13482;48.234;13.006;2023-05-10T12:42:10;21.90;67.50
25616;DHT22;13482;48.234;13.006;2023-05-10T12:44:38;21.80;67.40
25616;DHT22;13482;48.234;13.006;2023-05-10T12:47:06;21.80;67.20
25616;DHT22;13482;48.234;13.006;2023-05-10T12:49:34;21.70;67.10
25616;DHT22;13482;48.234;13.006;2023-05-10T12:52:01;21.60;67.10
25616;DHT22;13482;48.234;13.006;2023-05-10T12:54:28;21.50;67.20
25616;DHT22;13482;48.234;13.006;2023-05-10T12:56:56;21.50;67.30
25616;DHT22;13482;48.234;13.006;2023-05-10T12:59:23;21.40;67.50
25616;DHT22;13482;48.234;13.006;2023-05-10T13:01:50;21.30;67.50
25616;DHT22;13482;48.234;13.006;2023-05-10T13:04:17;21.30;67.60
25616;DHT22;13482;48.234;13.006;2023-05-10T13:06:44;21.20;67.40
25616;DHT22;13482;48.234;13.006;2023-05-10T13:09:11;21.10;67.00
25616;DHT22;13482;48.234;13.006;2023-05-10T13:11:38;20.90;66.80
25616;DHT22;13482;48.234;13.006;2023-05-10T13:14:05;20.70;66.50
25616;DHT22;13482;48.234;13.006;2023-05-10T13:16:33;20.60;66.60
25616;DHT22;13482;48.234;13.006;2023-05-10T13:19:00;20.40;66.60
25616;DHT22;13482;48.234;13.006;2023-05-10T13:21:27;20.20;66.80
25616;DHT22;13482;48.234;13.006;2023-05-10T13:23:54;20.00;67.00
25616;DHT22;13482;48.234;13.006;2023-05-10T13:26:22;19.90;67.30
25616;DHT22;13482;48.234;13.006;2023-05-10T13:28:49;19.80;67.30
25616;DHT22;13482;48.234;13.006;2023-05-10T13:31:18;19.60;67.50
25616;DHT22;13482;48.234;13.006;2023-05-10T13:33:45;19.50;67.70
25616;DHT22;13482;48.234;13.006;2023-05-10T13:36:12;19.40;67.90
25616;DHT22;13482;48.234;13.006;2023-05-10T13:38:39;19.30;68.00
25616;DHT22;13482;48.234;13.006;2023-05-10T13:41:06;19.20;68.40
25616;DHT22;13482;48.234;13.006;2023-05-10T13:43:34;19.10;68.60
25616;DHT22;13482;48.234;13.006;2023-05-10T13:46:02;19.00;68.80
25616;DHT22;13482;48.234;13.006;2023-05-10T13:48:29;18.90;69.10
25616;DHT22;13482;48.234;13.006;2023-05-10T13:50:56;18.90;69.40
25616;DHT22;13482;48.234;13.006;2023-05-10T13:53:23;18.80;69.50
25616;DHT22;13482;48.234;13.006;2023-05-10T13:55:51;18.70;69.60
25616;DHT22;13482;48.234;13.006;2023-05-10T13:58:18;18.70;69.80
25616;DHT22;13482;48.234;13.006;2023-05-10T14:00:45;18.60;70.10
25616;DHT22;13482;48.234;13.006;2023-05-10T14:03:13;18.60;70.10
25616;DHT22;13482;48.234;13.006;2023-05-10T14:05:40;18.60;70.30
25616;DHT22;13482;48.234;13.006;2023-05-10T14:08:07;18.60;70.40
25616;DHT22;13482;48.234;13.006;2023-05-10T14:10:36;18.50;70.60
25616;DHT22;13482;48.234;13.006;2023-05-10T14:13:03;18.50;70.70
25616;DHT22;13482;48.234;13.006;2023-05-10T14:15:30;18.50;70.70
25616;DHT22;13482;48.234;13.006;2023-05-10T14:17:57;18.50;70.80
25616;DHT22;13482;48.234;13.006;2023-05-10T14:20:25;18.50;70.80
25616;DHT22;13482;48.234;13.006;2023-05-10T14:22:52;18.50;70.90
25616;DHT22;13482;48.234;13.006;2023-05-10T14:25:19;18.50;71.10
25616;DHT22;13482;48.234;13.006;2023-05-10T14:27:46;18.50;71.20
25616;DHT22;13482;48.234;13.006;2023-05-10T14:30:14;18.50;71.40
25616;DHT22;13482;48.234;13.006;2023-05-10T14:32:41;18.50;71.40
25616;DHT22;13482;48.234;13.006;2023-05-10T14:35:09;18.50;71.50
25616;DHT22;13482;48.234;13.006;2023-05-10T14:37:39;18.50;71.60
25616;DHT22;13482;48.234;13.006;2023-05-10T14:40:06;18.50;71.50
25616;DHT22;13482;48.234;13.006;2023-05-10T14:42:34;18.60;71.40
25616;DHT22;13482;48.234;13.006;2023-05-10T14:45:02;18.60;71.40
25616;DHT22;13482;48.234;13.006;2023-05-10T14:47:29;18.60;71.40
25616;DHT22;13482;48.234;13.006;2023-05-10T14:49:57;18.60;71.40
25616;DHT22;13482;48.234;13.006;2023-05-10T14:52:24;18.60;71.60
25616;DHT22;13482;48.234;13.006;2023-05-10T14:54:52;18.60;71.60
25616;DHT22;13482;48.234;13.006;2023-05-10T14:57:20;18.60;71.70
25616;DHT22;13482;48.234;13.006;2023-05-10T14:59:47;18.60;71.50
25616;DHT22;13482;48.234;13.006;2023-05-10T15:02:15;18.50;71.70
25616;DHT22;13482;48.234;13.006;2023-05-10T15:04:43;18.50;71.70
25616;DHT22;13482;48.234;13.006;2023-05-10T15:07:10;18.60;71.70
25616;DHT22;13482;48.234;13.006;2023-05-10T15:09:41;18.60;71.80
25616;DHT22;13482;48.234;13.006;2023-05-10T15:12:08;18.60;71.90
25616;DHT22;13482;48.234;13.006;2023-05-10T15:14:35;18.60;71.90
25616;DHT22;13482;48.234;13.006;2023-05-10T15:17:03;18.60;71.90
25616;DHT22;13482;48.234;13.006;2023-05-10T15:19:32;18.60;72.00
25616;DHT22;13482;48.234;13.006;2023-05-10T15:22:00;18.60;72.00
25616;DHT22;13482;48.234;13.006;2023-05-10T15:24:27;18.70;72.00
25616;DHT22;13482;48.234;13.006;2023-05-10T15:26:54;18.70;71.90
25616;DHT22;13482;48.234;13.006;2023-05-10T15:29:21;18.70;72.00
25616;DHT22;13482;48.234;13.006;2023-05-10T15:31:49;18.60;71.90
25616;DHT22;13482;48.234;13.006;2023-05-10T15:34:18;18.60;72.00
25616;DHT22;13482;48.234;13.006;2023-05-10T15:36:45;18.70;72.00
25616;DHT22;13482;48.234;13.006;2023-05-10T15:39:12;18.70;72.20
25616;DHT22;13482;48.234;13.006;2023-05-10T15:41:40;18.70;72.20
25616;DHT22;13482;48.234;13.006;2023-05-10T15:44:07;18.70;72.20
25616;DHT22;13482;48.234;13.006;2023-05-10T15:46:34;18.70;72.20
25616;DHT22;13482;48.234;13.006;2023-05-10T15:49:01;18.70;72.20
25616;DHT22;13482;48.234;13.006;2023-05-10T15:51:29;18.70;72.00
25616;DHT22;13482;48.234;13.006;2023-05-10T15:53:56;18.70;71.90
25616;DHT22;13482;48.234;13.006;2023-05-10T15:56:57;18.70;71.90
25616;DHT22;13482;48.234;13.006;2023-05-10T16:01:19;18.80;72.80
25616;DHT22;13482;48.234;13.006;2023-05-10T16:18:19;18.80;72.20
25616;DHT22;13482;48.234;13.006;2023-05-10T16:43:47;18.20;72.50
